Time;durP1;ratioP1;P1;durP2;ratioP2;P2;SDS_P1;SDS_P2;PMS_P1;PMS_P2;Temp;Humidity;BMP_temperature;BMP_pressure;BME280_temperature;BME280_humidity;BME280_pressure;Samples;Min_cycle;Max_cycle;Signal;HPM_P1;HPM_P2
2021/11/14 00:00:57;;;;;;;20.02;11.00;;;10.70;97.40;;;;;;5051432;28;20089;-70
2021/11/14 00:03:23;;;;;;;21.88;12.32;;;10.80;97.30;;;;;;5051480;28;20114;-70
2021/11/14 00:05:50;;;;;;;19.70;12.32;;;10.80;97.40;;;;;;5051488;28;20108;-70
2021/11/14 00:08:16;;;;;;;16.30;9.60;;;10.70;97.50;;;;;;5050463;28;20051;-70
2021/11/14 00:10:45;;;;;;;21.25;11.73;;;10.60;97.70;;;;;;5050358;28;20120;-70
2021/11/14 00:13:12;;;;;;;22.48;11.43;;;10.50;97.60;;;;;;5051565;28;20106;-70
2021/11/14 00:15:38;;;;;;;20.40;11.18;;;10.50;97.70;;;;;;5051495;28;20045;-69
2021/11/14 00:18:04;;;;;;;19.55;11.25;;;10.50;97.60;;;;;;5051396;28;20036;-70
2021/11/14 00:20:31;;;;;;;20.65;11.60;;;10.40;97.60;;;;;;5051317;28;20029;-69
2021/11/14 00:22:57;;;;;;;22.67;11.48;;;10.40;97.60;;;;;;5051273;28;20040;-70
2021/11/14 00:25:23;;;;;;;20.08;10.63;;;10.40;97.70;;;;;;5051251;28;20469;-70
2021/11/14 00:27:50;;;;;;;19.02;10.93;;;10.50;97.50;;;;;;5051521;28;20491;-70
2021/11/14 00:30:16;;;;;;;23.73;12.25;;;10.60;97.40;;;;;;5051414;28;20116;-71
2021/11/14 00:32:43;;;;;;;20.90;11.88;;;10.50;97.50;;;;;;5050084;28;20544;-71
2021/11/14 00:35:09;;;;;;;20.55;10.85;;;10.50;97.70;;;;;;5051080;28;20659;-71
2021/11/14 00:37:36;;;;;;;18.40;10.68;;;10.40;97.60;;;;;;5051002;28;20068;-71
2021/11/14 00:40:25;;;;;;;25.05;11.57;;;10.40;97.80;;;;;;5051240;28;20606;-71
2021/11/14 00:42:51;;;;;;;18.65;11.27;;;10.50;97.70;;;;;;5050995;28;20479;-71
2021/11/14 00:45:17;;;;;;;20.10;11.55;;;10.50;97.60;;;;;;5050094;28;20050;-71
2021/11/14 00:47:44;;;;;;;23.98;11.60;;;10.50;97.70;;;;;;5050903;28;20497;-71
2021/11/14 00:50:11;;;;;;;25.35;11.38;;;10.50;97.80;;;;;;5050969;28;20039;-71
2021/11/14 00:52:41;;;;;;;21.77;11.30;;;10.60;97.50;;;;;;5050781;28;20021;-69
2021/11/14 00:55:08;;;;;;;21.92;12.00;;;10.70;97.40;;;;;;5051032;28;20104;-70
2021/11/14 00:57:34;;;;;;;23.05;11.52;;;10.70;97.40;;;;;;5050660;28;20052;-69
2021/11/14 01:00:00;;;;;;;22.15;11.02;;;10.80;97.40;;;;;;5050506;28;20059;-70
2021/11/14 01:02:25;;;;;;;21.40;12.07;;;10.80;97.40;;;;;;5050820;28;20053;-69
2021/11/14 01:04:51;;;;;;;23.02;12.52;;;10.80;97.40;;;;;;5050373;28;20420;-70
2021/11/14 01:07:17;;;;;;;19.80;12.00;;;10.80;97.40;;;;;;5050830;28;20085;-70
2021/11/14 01:09:42;;;;;;;22.77;11.95;;;10.70;97.40;;;;;;5050593;28;20029;-69
2021/11/14 01:12:08;;;;;;;24.33;11.80;;;10.70;97.60;;;;;;5050443;28;20061;-71
2021/11/14 01:14:35;;;;;;;21.40;12.38;;;10.70;97.60;;;;;;5050336;28;20029;-69
2021/11/14 01:17:01;;;;;;;21.30;12.10;;;10.70;97.60;;;;;;5050280;28;20485;-70
2021/11/14 01:19:27;;;;;;;20.70;11.98;;;10.70;97.70;;;;;;5050104;28;20035;-70
2021/11/14 01:21:53;;;;;;;20.38;11.75;;;10.70;98.00;;;;;;5050677;28;20439;-70
2021/11/14 01:24:19;;;;;;;24.05;13.32;;;10.60;97.70;;;;;;5050365;28;20462;-70
2021/11/14 01:26:44;;;;;;;21.98;12.95;;;10.60;97.80;;;;;;5050097;28;20029;-70
2021/11/14 01:29:10;;;;;;;21.38;12.05;;;10.60;97.80;;;;;;5050114;28;20040;-71
2021/11/14 01:31:36;;;;;;;20.48;11.35;;;10.70;97.90;;;;;;5050234;28;20044;-70
2021/11/14 01:34:02;;;;;;;21.77;12.30;;;10.70;97.90;;;;;;5049414;28;20378;-70
2021/11/14 01:36:32;;;;;;;20.88;12.18;;;10.60;98.00;;;;;;5050270;28;20028;-71
2021/11/14 01:38:59;;;;;;;22.35;13.07;;;10.60;98.10;;;;;;5050022;28;20048;-71
2021/11/14 01:41:24;;;;;;;22.58;12.00;;;10.60;98.20;;;;;;5050279;28;20523;-70
2021/11/14 01:43:52;;;;;;;20.35;11.85;;;10.60;98.10;;;;;;5050015;28;20113;-70
2021/11/14 01:46:18;;;;;;;19.45;11.95;;;10.70;98.10;;;;;;5050347;28;20590;-70
2021/11/14 01:48:44;;;;;;;23.42;12.38;;;10.70;98.00;;;;;;5050157;28;20044;-70
2021/11/14 01:51:11;;;;;;;22.98;12.50;;;10.70;98.10;;;;;;5050101;28;20039;-71
2021/11/14 01:53:38;;;;;;;21.20;12.88;;;10.70;98.10;;;;;;5049942;28;20111;-70
2021/11/14 01:56:06;;;;;;;20.57;12.80;;;10.80;98.00;;;;;;5050053;28;20036;-70
2021/11/14 01:58:31;;;;;;;26.42;12.70;;;10.80;98.00;;;;;;5053865;28;20025;-70
2021/11/14 02:01:17;;;;;;;21.95;12.52;;;10.70;98.00;;;;;;5054401;28;20028;-70
2021/11/14 02:03:51;;;;;;;21.98;12.30;;;10.80;98.10;;;;;;5053674;28;20362;-69
2021/11/14 02:06:17;;;;;;;23.98;13.18;;;10.80;98.00;;;;;;5053978;28;20048;-70
2021/11/14 02:08:44;;;;;;;24.63;13.25;;;10.80;97.90;;;;;;5053899;28;20497;-69
2021/11/14 02:11:16;;;;;;;26.80;13.83;;;10.80;97.90;;;;;;5053861;28;20132;-69
2021/11/14 02:13:43;;;;;;;24.92;13.40;;;10.80;97.90;;;;;;5053558;28;20382;-69
2021/11/14 02:16:09;;;;;;;25.02;14.00;;;10.80;98.00;;;;;;5054141;28;20013;-70
2021/11/14 02:18:35;;;;;;;25.63;14.50;;;10.80;98.00;;;;;;5052663;28;20107;-70
2021/11/14 02:21:00;;;;;;;22.45;13.90;;;10.70;98.00;;;;;;5053616;28;20350;-70
2021/11/14 02:23:26;;;;;;;23.17;13.38;;;10.70;98.00;;;;;;5053671;28;20124;-70
2021/11/14 02:25:54;;;;;;;23.13;13.80;;;10.70;98.20;;;;;;5053489;28;20025;-70
2021/11/14 02:28:21;;;;;;;26.38;12.90;;;10.70;98.40;;;;;;5054124;28;20020;-69
2021/11/14 02:30:49;;;;;;;26.75;14.35;;;10.60;98.40;;;;;;5053402;28;20075;-70
2021/11/14 02:33:15;;;;;;;25.75;14.07;;;10.60;98.50;;;;;;5052202;28;20471;-70
2021/11/14 02:35:43;;;;;;;25.58;14.10;;;10.60;98.40;;;;;;5060257;28;20036;-69
2021/11/14 02:38:09;;;;;;;27.77;14.43;;;10.60;98.60;;;;;;5073055;28;20333;-70
2021/11/14 02:40:36;;;;;;;25.90;14.73;;;10.50;98.60;;;;;;5073111;28;20031;-70
2021/11/14 02:43:02;;;;;;;29.08;15.15;;;10.50;98.80;;;;;;5073480;28;20422;-70
2021/11/14 02:45:28;;;;;;;29.65;16.02;;;10.40;98.80;;;;;;5072956;28;20473;-69
2021/11/14 02:47:54;;;;;;;31.70;16.08;;;10.40;99.00;;;;;;5073097;28;20036;-68
2021/11/14 02:50:21;;;;;;;28.27;15.15;;;10.40;99.00;;;;;;5071881;28;20471;-70
2021/11/14 02:52:47;;;;;;;33.08;16.45;;;10.30;99.00;;;;;;5072942;28;20024;-69
2021/11/14 02:55:15;;;;;;;27.02;15.52;;;10.40;99.10;;;;;;5073216;28;20032;-70
2021/11/14 02:57:41;;;;;;;31.15;15.90;;;10.40;99.10;;;;;;5072824;28;20111;-70
2021/11/14 03:00:10;;;;;;;33.05;16.63;;;10.40;99.20;;;;;;5072939;28;20032;-70
2021/11/14 03:02:36;;;;;;;29.80;16.05;;;10.50;99.00;;;;;;5072899;28;20040;-70
2021/11/14 03:05:10;;;;;;;30.20;17.13;;;10.60;98.90;;;;;;5072721;28;20032;-70
2021/11/14 03:07:35;;;;;;;31.80;16.50;;;10.60;98.90;;;;;;5072579;28;20477;-70
2021/11/14 03:10:04;;;;;;;29.73;16.63;;;10.60;99.20;;;;;;5072261;28;20029;-70
2021/11/14 03:12:29;;;;;;;34.28;17.98;;;10.60;98.90;;;;;;5072448;28;20048;-70
2021/11/14 03:14:57;;;;;;;31.63;16.92;;;10.60;98.80;;;;;;5072607;28;20028;-70
2021/11/14 03:17:23;;;;;;;26.00;16.30;;;10.70;98.80;;;;;;5072586;28;20469;-70
2021/11/14 03:19:48;;;;;;;34.80;17.88;;;10.60;98.80;;;;;;5072323;28;20044;-69
2021/11/14 03:22:14;;;;;;;36.38;18.50;;;10.60;98.80;;;;;;5072744;28;20501;-70
2021/11/14 03:24:40;;;;;;;29.83;16.67;;;10.70;98.80;;;;;;5072546;28;20036;-70
2021/11/14 03:27:06;;;;;;;31.00;17.42;;;10.70;98.80;;;;;;5072420;28;20481;-70
2021/11/14 03:29:32;;;;;;;32.47;16.83;;;10.60;98.80;;;;;;5072119;28;20120;-70
2021/11/14 03:31:57;;;;;;;33.38;18.55;;;10.70;98.90;;;;;;5072222;28;20111;-70
2021/11/14 03:34:23;;;;;;;35.75;18.20;;;10.70;98.90;;;;;;5072193;28;20481;-70
2021/11/14 03:36:48;;;;;;;32.90;17.77;;;10.70;98.80;;;;;;5072692;28;20020;-70
2021/11/14 03:39:14;;;;;;;32.67;17.88;;;10.60;98.70;;;;;;5071931;28;20111;-71
2021/11/14 03:41:41;;;;;;;37.22;18.08;;;10.60;98.80;;;;;;5072146;28;20037;-69
2021/11/14 03:44:09;;;;;;;37.90;20.08;;;10.60;98.80;;;;;;5071957;28;20046;-70
2021/11/14 03:46:36;;;;;;;34.63;19.23;;;10.60;98.90;;;;;;5071827;28;20113;-69
2021/11/14 03:49:02;;;;;;;33.47;18.42;;;10.60;98.90;;;;;;5073148;28;20032;-71
2021/11/14 03:51:28;;;;;;;35.60;18.50;;;10.70;98.90;;;;;;5072033;28;20043;-69
2021/11/14 03:53:55;;;;;;;40.72;20.02;;;10.70;98.80;;;;;;5072017;28;20037;-71
2021/11/14 03:56:21;;;;;;;32.67;18.70;;;10.60;99.00;;;;;;5070858;28;20116;-70
2021/11/14 03:58:47;;;;;;;32.50;18.85;;;10.60;99.10;;;;;;5071782;28;20381;-70
2021/11/14 04:01:20;;;;;;;39.30;20.67;;;10.70;99.00;;;;;;5072111;28;20085;-69
2021/11/14 04:03:46;;;;;;;36.45;19.50;;;10.60;98.90;;;;;;5071568;28;20498;-70
2021/11/14 04:06:13;;;;;;;41.65;20.75;;;10.60;99.00;;;;;;5071644;28;20116;-70
2021/11/14 04:08:39;;;;;;;37.78;19.85;;;10.70;99.00;;;;;;5071495;28;20036;-68
2021/11/14 04:11:05;;;;;;;35.35;18.80;;;10.70;99.00;;;;;;5071560;28;20024;-69
2021/11/14 04:13:34;;;;;;;34.58;18.65;;;10.60;99.10;;;;;;5070190;28;20071;-69
2021/11/14 04:16:02;;;;;;;37.78;19.60;;;10.60;99.20;;;;;;5070829;28;20025;-70
2021/11/14 04:18:28;;;;;;;37.72;20.38;;;10.60;99.20;;;;;;5071189;28;20033;-70
2021/11/14 04:20:54;;;;;;;34.35;19.40;;;10.60;99.00;;;;;;5070098;28;20047;-70
2021/11/14 04:23:21;;;;;;;35.67;18.83;;;10.70;99.10;;;;;;5071154;28;20556;-69
2021/11/14 04:25:47;;;;;;;38.20;18.90;;;10.70;99.10;;;;;;5071312;28;20116;-70
2021/11/14 04:28:13;;;;;;;37.53;19.90;;;10.60;99.00;;;;;;5071397;28;20047;-71
2021/11/14 04:30:45;;;;;;;37.78;20.45;;;10.70;99.00;;;;;;5071166;28;20040;-70
2021/11/14 04:33:11;;;;;;;40.03;19.65;;;10.70;99.00;;;;;;5070917;28;20174;-70
2021/11/14 04:35:38;;;;;;;37.22;18.92;;;10.70;99.00;;;;;;5070941;28;20395;-70
2021/11/14 04:38:04;;;;;;;34.83;19.30;;;10.60;99.00;;;;;;5070809;28;20044;-69
2021/11/14 04:40:35;;;;;;;34.72;19.98;;;10.60;99.10;;;;;;5070753;28;20087;-70
2021/11/14 04:43:00;;;;;;;41.40;20.98;;;10.60;99.10;;;;;;5071214;28;20021;-70
2021/11/14 04:45:26;;;;;;;46.72;20.63;;;10.70;99.20;;;;;;5069484;28;20055;-70
2021/11/14 04:47:52;;;;;;;42.33;20.58;;;10.70;99.10;;;;;;5070648;28;20108;-70
2021/11/14 04:50:20;;;;;;;43.67;21.25;;;10.60;99.10;;;;;;5069514;28;20044;-69
2021/11/14 04:52:45;;;;;;;48.72;20.88;;;10.60;99.20;;;;;;5070794;28;20052;-69
2021/11/14 04:55:11;;;;;;;40.40;19.83;;;10.60;99.20;;;;;;5071052;28;20099;-70
2021/11/14 04:57:37;;;;;;;41.25;19.70;;;10.60;99.20;;;;;;5071131;28;20434;-70
2021/11/14 05:00:10;;;;;;;41.67;21.10;;;10.60;99.30;;;;;;5070378;28;20044;-69
2021/11/14 05:02:36;;;;;;;42.78;20.40;;;10.70;99.20;;;;;;5070643;28;20036;-69
2021/11/14 05:05:02;;;;;;;44.72;19.95;;;10.70;99.30;;;;;;5070707;28;20102;-70
2021/11/14 05:07:28;;;;;;;40.35;19.73;;;10.70;99.20;;;;;;5070485;28;20109;-70
2021/11/14 05:09:53;;;;;;;40.83;19.15;;;10.70;99.20;;;;;;5070865;28;20342;-70
2021/11/14 05:12:19;;;;;;;44.10;19.83;;;10.70;99.10;;;;;;5070358;28;20028;-70
2021/11/14 05:14:45;;;;;;;40.55;19.25;;;10.70;99.10;;;;;;5070631;28;20045;-70
2021/11/14 05:17:10;;;;;;;45.13;20.08;;;10.60;99.10;;;;;;5070684;28;20068;-70
2021/11/14 05:19:36;;;;;;;42.15;19.35;;;10.60;99.10;;;;;;5070059;28;20534;-70
2021/11/14 05:22:01;;;;;;;40.03;17.90;;;10.70;99.00;;;;;;5070972;28;20020;-70
2021/11/14 05:24:27;;;;;;;38.97;19.23;;;10.70;98.90;;;;;;5070221;28;20375;-70
2021/11/14 05:26:54;;;;;;;44.28;19.63;;;10.70;99.00;;;;;;5070236;28;20032;-70
2021/11/14 05:29:20;;;;;;;35.22;16.65;;;10.70;99.00;;;;;;5070195;28;20041;-70
2021/11/14 05:31:46;;;;;;;44.97;18.63;;;10.70;98.90;;;;;;5069935;28;20035;-70
2021/11/14 05:34:12;;;;;;;40.80;18.65;;;10.70;99.10;;;;;;5070920;28;20104;-70
2021/11/14 05:36:38;;;;;;;39.33;19.40;;;10.60;99.10;;;;;;5070487;28;20029;-70
2021/11/14 05:39:03;;;;;;;38.35;18.15;;;10.70;99.00;;;;;;5070293;28;20424;-71
2021/11/14 05:41:29;;;;;;;40.58;19.05;;;10.70;98.90;;;;;;5070509;28;20095;-70
2021/11/14 05:43:55;;;;;;;42.45;18.95;;;10.70;99.00;;;;;;5070297;28;20657;-69
2021/11/14 05:46:21;;;;;;;43.38;19.77;;;10.70;99.00;;;;;;5070088;28;20020;-71
2021/11/14 05:48:46;;;;;;;44.58;20.20;;;10.60;99.10;;;;;;5070442;28;20077;-70
2021/11/14 05:51:12;;;;;;;42.40;19.45;;;10.70;99.10;;;;;;5070178;28;20124;-70
2021/11/14 05:53:38;;;;;;;46.95;20.38;;;10.70;99.00;;;;;;5070096;28;20453;-70
2021/11/14 05:56:04;;;;;;;43.85;18.88;;;10.60;99.20;;;;;;5069007;28;20108;-70
2021/11/14 05:58:53;;;;;;;45.70;19.23;;;10.70;99.10;;;;;;5069876;28;20024;-69
2021/11/14 06:01:28;;;;;;;43.50;19.95;;;10.70;99.10;;;;;;5070188;28;20013;-70
2021/11/14 06:06:31;;;;;;;43.85;19.35;;;10.60;99.10;;;;;;5069950;28;20028;-70
2021/11/14 06:08:57;;;;;;;41.10;18.75;;;10.60;99.20;;;;;;5069671;28;20355;-70
2021/11/14 06:11:24;;;;;;;43.95;20.90;;;10.60;99.20;;;;;;5069787;28;20263;-70
2021/11/14 06:13:52;;;;;;;47.95;19.85;;;10.70;99.10;;;;;;5069661;28;20052;-69
2021/11/14 06:16:18;;;;;;;43.67;20.10;;;10.80;99.20;;;;;;5070261;28;20031;-69
2021/11/14 06:18:43;;;;;;;48.65;21.08;;;10.60;99.20;;;;;;5068814;28;20032;-70
2021/11/14 06:21:09;;;;;;;43.83;20.95;;;10.70;99.20;;;;;;5069727;28;20031;-69
2021/11/14 06:23:35;;;;;;;48.10;20.42;;;10.70;99.40;;;;;;5069807;28;20031;-70
2021/11/14 06:26:00;;;;;;;47.03;20.63;;;10.70;99.20;;;;;;5069778;28;20401;-70
2021/11/14 06:28:27;;;;;;;42.97;20.48;;;10.70;99.20;;;;;;5069438;28;20103;-70
2021/11/14 06:30:52;;;;;;;45.80;20.75;;;10.70;99.10;;;;;;5070118;28;20020;-69
2021/11/14 06:33:18;;;;;;;41.65;18.83;;;10.70;99.10;;;;;;5069752;28;20082;-70
2021/11/14 06:35:44;;;;;;;40.22;20.63;;;10.80;99.00;;;;;;5069671;28;20032;-69
2021/11/14 06:38:09;;;;;;;48.50;20.00;;;10.80;99.00;;;;;;5068449;28;20050;-70
2021/11/14 06:40:35;;;;;;;38.85;19.13;;;10.80;99.00;;;;;;5069331;28;20398;-70
2021/11/14 06:43:01;;;;;;;48.28;18.95;;;10.80;99.00;;;;;;5069832;28;20060;-70
2021/11/14 06:45:26;;;;;;;48.03;19.48;;;10.80;99.00;;;;;;5072833;28;20119;-70
2021/11/14 06:47:52;;;;;;;42.03;19.40;;;10.70;99.20;;;;;;5073052;28;20035;-70
2021/11/14 06:50:18;;;;;;;46.15;19.80;;;10.70;98.90;;;;;;5072963;28;20416;-70
2021/11/14 06:52:45;;;;;;;49.35;21.40;;;10.80;99.00;;;;;;5073075;28;20033;-70
2021/11/14 06:55:12;;;;;;;41.53;19.52;;;10.70;99.00;;;;;;5073392;28;20028;-70
2021/11/14 06:57:38;;;;;;;41.97;19.55;;;10.70;99.00;;;;;;5072990;28;20036;-70
2021/11/14 07:00:11;;;;;;;46.33;19.75;;;10.80;99.00;;;;;;5073030;28;20119;-70
2021/11/14 07:02:37;;;;;;;45.58;20.13;;;10.70;99.00;;;;;;5073050;28;20039;-70
2021/11/14 07:05:04;;;;;;;43.63;19.55;;;10.70;99.00;;;;;;5072653;28;20028;-70
2021/11/14 07:07:29;;;;;;;46.67;20.10;;;10.70;99.00;;;;;;5072756;28;20417;-70
2021/11/14 07:09:55;;;;;;;43.97;20.00;;;10.70;99.10;;;;;;5073116;28;20020;-70
2021/11/14 07:12:23;;;;;;;43.40;19.60;;;10.70;99.20;;;;;;5072359;28;20074;-71
2021/11/14 07:14:49;;;;;;;47.60;21.02;;;10.70;99.20;;;;;;5072677;28;20021;-68
2021/11/14 07:17:15;;;;;;;45.00;21.00;;;10.70;99.10;;;;;;5072363;28;20036;-68
2021/11/14 07:19:41;;;;;;;48.08;21.20;;;10.70;99.10;;;;;;5072504;28;20067;-69
2021/11/14 07:22:07;;;;;;;42.95;19.45;;;10.80;99.20;;;;;;5071961;28;20114;-70
2021/11/14 07:24:33;;;;;;;49.63;20.92;;;10.80;99.10;;;;;;5072284;28;20029;-69
2021/11/14 07:26:58;;;;;;;47.17;20.90;;;10.80;99.10;;;;;;5072145;28;20029;-69
2021/11/14 07:29:24;;;;;;;51.58;22.20;;;10.80;99.10;;;;;;5072284;28;20056;-70
2021/11/14 07:31:49;;;;;;;46.47;20.77;;;10.70;99.10;;;;;;5072213;28;20033;-71
2021/11/14 07:34:15;;;;;;;49.10;20.38;;;10.80;99.20;;;;;;5072717;28;20032;-70
2021/11/14 07:36:40;;;;;;;46.13;21.63;;;10.80;99.20;;;;;;5072389;28;20338;-71
2021/11/14 07:39:06;;;;;;;54.50;22.35;;;10.80;99.10;;;;;;5072084;28;20040;-71
2021/11/14 07:41:32;;;;;;;57.95;22.08;;;10.80;99.00;;;;;;5071018;28;20029;-70
2021/11/14 07:43:57;;;;;;;52.75;22.48;;;10.80;99.10;;;;;;5072228;28;20362;-71
2021/11/14 07:46:23;;;;;;;48.53;20.67;;;10.80;99.10;;;;;;5072316;28;20461;-71
2021/11/14 07:48:49;;;;;;;47.47;21.13;;;10.90;99.20;;;;;;5072158;28;20104;-70
2021/11/14 07:51:14;;;;;;;47.83;21.05;;;10.90;99.00;;;;;;5071961;28;20071;-70
2021/11/14 07:53:40;;;;;;;47.97;20.73;;;11.00;98.90;;;;;;5071897;28;20568;-70
2021/11/14 07:56:06;;;;;;;47.00;20.23;;;11.00;98.80;;;;;;5071341;28;20032;-70
2021/11/14 07:58:31;;;;;;;51.05;21.92;;;10.90;98.90;;;;;;5071768;28;20350;-71
2021/11/14 08:00:57;;;;;;;46.90;20.40;;;10.90;98.90;;;;;;5072254;28;20021;-70
2021/11/14 08:03:23;;;;;;;51.97;22.98;;;11.00;98.80;;;;;;5071722;28;20347;-70
2021/11/14 08:05:49;;;;;;;44.70;21.52;;;11.00;98.90;;;;;;5071869;28;20051;-69
2021/11/14 08:08:15;;;;;;;52.58;22.17;;;11.00;98.80;;;;;;5071662;28;20055;-69
2021/11/14 08:10:41;;;;;;;53.15;22.33;;;11.10;98.90;;;;;;5071422;28;20036;-69
2021/11/14 08:13:08;;;;;;;46.35;22.30;;;11.10;98.90;;;;;;5071655;28;20037;-70
2021/11/14 08:15:36;;;;;;;49.85;23.42;;;11.10;98.80;;;;;;5071527;28;20036;-70
2021/11/14 08:18:03;;;;;;;53.83;22.98;;;11.20;98.70;;;;;;5071595;28;20403;-69
2021/11/14 08:20:29;;;;;;;45.22;21.92;;;11.20;98.60;;;;;;5071485;28;20122;-70
2021/11/14 08:22:59;;;;;;;54.50;23.50;;;11.20;98.50;;;;;;5071369;28;20063;-70
2021/11/14 08:25:26;;;;;;;45.92;22.17;;;11.20;98.60;;;;;;5071152;28;20025;-71
2021/11/14 08:27:52;;;;;;;48.80;23.90;;;11.20;98.50;;;;;;5071948;28;20020;-71
2021/11/14 08:30:17;;;;;;;58.33;24.85;;;11.30;98.50;;;;;;5069834;28;20021;-70
2021/11/14 08:32:43;;;;;;;51.45;23.75;;;11.30;98.30;;;;;;5068570;28;20482;-70
2021/11/14 08:35:10;;;;;;;53.33;23.92;;;11.30;98.30;;;;;;5071170;28;20097;-71
2021/11/14 08:37:36;;;;;;;46.42;23.55;;;11.40;98.30;;;;;;5071138;28;20496;-72
2021/11/14 08:40:04;;;;;;;50.63;23.02;;;11.40;98.20;;;;;;5071454;28;20115;-71
2021/11/14 08:42:29;;;;;;;45.60;22.38;;;11.30;98.20;;;;;;5071327;28;20031;-71
2021/11/14 08:44:55;;;;;;;44.83;23.10;;;11.30;98.30;;;;;;5071531;28;20033;-72
2021/11/14 08:47:21;;;;;;;46.33;22.67;;;11.40;98.40;;;;;;5070776;28;20032;-72
2021/11/14 08:49:46;;;;;;;51.58;23.20;;;11.40;98.20;;;;;;5071095;28;20052;-72
2021/11/14 08:52:12;;;;;;;46.75;23.60;;;11.40;98.20;;;;;;5070364;28;20078;-72
2021/11/14 08:54:38;;;;;;;48.63;23.02;;;11.40;98.10;;;;;;5071039;28;20024;-73
2021/11/14 08:57:04;;;;;;;43.63;22.33;;;11.40;98.20;;;;;;5071132;28;20021;-73
2021/11/14 08:59:33;;;;;;;50.00;23.23;;;11.40;98.30;;;;;;5069957;28;20418;-71
2021/11/14 09:02:00;;;;;;;50.28;24.08;;;11.30;98.20;;;;;;5070763;28;20461;-75
2021/11/14 09:04:26;;;;;;;47.10;23.10;;;11.40;98.40;;;;;;5071102;28;20097;-75
2021/11/14 09:06:54;;;;;;;46.00;22.30;;;11.50;98.20;;;;;;5070668;28;20020;-74
2021/11/14 09:09:21;;;;;;;50.33;21.77;;;11.60;97.90;;;;;;5070842;28;20024;-72
2021/11/14 09:11:48;;;;;;;45.30;22.25;;;11.50;97.70;;;;;;5071370;28;20336;-71
2021/11/14 09:14:14;;;;;;;46.78;21.77;;;11.60;97.70;;;;;;5070482;28;20037;-71
2021/11/14 09:16:40;;;;;;;45.78;23.73;;;11.50;97.60;;;;;;5069398;28;20044;-72
2021/11/14 09:19:07;;;;;;;49.38;21.73;;;11.50;97.80;;;;;;5071255;28;20028;-72
2021/11/14 09:21:37;;;;;;;42.85;21.05;;;11.50;97.80;;;;;;5070776;28;20082;-71
2021/11/14 09:24:04;;;;;;;44.40;21.50;;;11.50;97.70;;;;;;5069683;28;20028;-71
2021/11/14 09:26:30;;;;;;;43.33;21.48;;;11.50;97.80;;;;;;5070702;28;20028;-71
2021/11/14 09:28:55;;;;;;;43.80;21.73;;;11.50;97.70;;;;;;5070657;28;20166;-73
2021/11/14 09:31:21;;;;;;;42.75;21.27;;;11.50;97.60;;;;;;5070290;28;20389;-72
2021/11/14 09:33:47;;;;;;;45.25;21.38;;;11.50;97.70;;;;;;5071124;28;20039;-73
2021/11/14 09:36:13;;;;;;;42.85;19.52;;;11.50;97.70;;;;;;5069727;28;20029;-74
2021/11/14 09:38:39;;;;;;;37.20;19.55;;;11.60;97.70;;;;;;5070939;28;20059;-73
2021/11/14 09:41:07;;;;;;;43.22;20.95;;;11.60;97.70;;;;;;5070840;28;20070;-73
2021/11/14 09:43:34;;;;;;;43.53;20.83;;;11.60;97.70;;;;;;5070580;28;20051;-74
2021/11/14 09:46:00;;;;;;;41.40;21.80;;;11.60;97.60;;;;;;5070517;28;20021;-71
2021/11/14 09:48:26;;;;;;;40.58;22.08;;;11.60;97.50;;;;;;5070073;28;20588;-71
2021/11/14 09:50:56;;;;;;;42.22;20.33;;;11.60;97.40;;;;;;5070044;28;20041;-68
2021/11/14 09:53:34;;;;;;;38.47;20.65;;;11.60;97.50;;;;;;5070079;28;20040;-68
2021/11/14 09:56:01;;;;;;;45.08;21.60;;;11.60;97.60;;;;;;5070105;28;20032;-70
2021/11/14 09:58:27;;;;;;;42.72;20.98;;;11.60;97.70;;;;;;5070173;28;20028;-69
2021/11/14 10:00:53;;;;;;;43.28;21.52;;;11.60;97.60;;;;;;5070483;28;20610;-70
2021/11/14 10:03:20;;;;;;;42.45;19.63;;;11.60;97.50;;;;;;5069899;28;20033;-69
2021/11/14 10:05:48;;;;;;;40.93;20.40;;;11.70;97.60;;;;;;5069031;28;20029;-71
2021/11/14 10:08:15;;;;;;;41.65;20.02;;;11.60;97.40;;;;;;5070116;28;20288;-70
2021/11/14 10:10:52;;;;;;;43.60;21.02;;;11.60;97.40;;;;;;5070078;28;20036;-70
2021/11/14 10:13:23;;;;;;;43.03;20.50;;;11.60;97.40;;;;;;5070082;28;20063;-70
2021/11/14 10:16:07;;;;;;;44.38;19.77;;;11.60;97.40;;;;;;5070082;28;20063;-72
2021/11/14 10:18:33;;;;;;;44.95;20.08;;;11.60;97.40;;;;;;5070798;28;20528;-69
2021/11/14 10:21:02;;;;;;;35.67;20.02;;;11.60;97.40;;;;;;5066229;28;20040;-69
2021/11/14 10:23:31;;;;;;;39.53;19.15;;;11.60;97.50;;;;;;5054088;28;20423;-68
2021/11/14 10:25:58;;;;;;;39.30;18.77;;;11.50;97.40;;;;;;5053888;28;20531;-69
2021/11/14 10:28:28;;;;;;;39.35;18.38;;;11.50;97.40;;;;;;5053955;28;20055;-69
2021/11/14 10:30:54;;;;;;;37.20;18.42;;;11.60;97.40;;;;;;5054261;28;20028;-69
2021/11/14 10:33:21;;;;;;;34.78;19.40;;;11.60;97.40;;;;;;5052620;28;20029;-69
2021/11/14 10:35:49;;;;;;;35.42;17.70;;;11.60;97.30;;;;;;5053392;28;20465;-68
2021/11/14 10:38:18;;;;;;;37.33;18.40;;;11.70;97.30;;;;;;5052789;28;20036;-68
2021/11/14 10:40:50;;;;;;;36.10;17.92;;;11.60;97.20;;;;;;5053449;28;20029;-70
2021/11/14 10:43:17;;;;;;;34.65;18.63;;;11.70;97.20;;;;;;5053822;28;20032;-68
2021/11/14 10:45:43;;;;;;;40.38;19.27;;;11.60;97.00;;;;;;5053505;28;20029;-69
2021/11/14 10:48:16;;;;;;;36.65;18.00;;;11.70;97.00;;;;;;5053383;28;20123;-68
2021/11/14 10:50:48;;;;;;;37.30;18.10;;;11.60;97.00;;;;;;5052794;28;20183;-70
2021/11/14 10:53:18;;;;;;;40.75;17.65;;;11.70;97.10;;;;;;5053125;28;20071;-69
2021/11/14 10:55:52;;;;;;;43.15;18.95;;;11.60;97.10;;;;;;5052716;28;20080;-68
2021/11/14 10:58:18;;;;;;;37.03;19.25;;;11.70;97.10;;;;;;5053354;28;20025;-68
2021/11/14 11:00:48;;;;;;;42.13;19.38;;;11.70;97.10;;;;;;5052846;28;20036;-69
2021/11/14 11:03:14;;;;;;;36.38;19.65;;;11.70;97.10;;;;;;5052833;28;20032;-69
2021/11/14 11:05:41;;;;;;;42.33;20.23;;;11.70;97.10;;;;;;5052904;28;20029;-70
2021/11/14 11:08:08;;;;;;;45.22;21.98;;;11.70;97.20;;;;;;5052672;28;20021;-69
2021/11/14 11:10:39;;;;;;;41.33;19.05;;;11.70;97.40;;;;;;5052762;28;20040;-70
2021/11/14 11:13:09;;;;;;;36.60;18.27;;;11.70;97.40;;;;;;5053012;28;20055;-69
2021/11/14 11:15:52;;;;;;;40.05;19.98;;;11.80;97.30;;;;;;5052585;28;20106;-69
2021/11/14 11:18:21;;;;;;;43.40;19.95;;;11.70;97.20;;;;;;5052423;28;20119;-70
2021/11/14 11:20:55;;;;;;;49.10;20.60;;;11.70;97.40;;;;;;5052432;28;20099;-70
2021/11/14 11:23:23;;;;;;;37.92;19.95;;;11.70;97.40;;;;;;5051229;28;20039;-70
2021/11/14 11:25:57;;;;;;;41.88;20.67;;;11.80;97.40;;;;;;5052152;28;20078;-69
2021/11/14 11:28:33;;;;;;;43.03;21.08;;;11.80;97.30;;;;;;5052300;28;20025;-69
2021/11/14 11:31:02;;;;;;;37.50;19.77;;;11.90;97.30;;;;;;5051905;28;20096;-70
2021/11/14 11:33:31;;;;;;;37.05;19.92;;;11.80;97.10;;;;;;5051830;28;20030;-69
2021/11/14 11:35:57;;;;;;;38.55;20.30;;;11.80;97.10;;;;;;5052006;28;20029;-69
2021/11/14 11:38:26;;;;;;;44.10;19.88;;;11.80;97.20;;;;;;5052140;28;20477;-70
2021/11/14 11:40:53;;;;;;;40.28;20.10;;;11.80;97.40;;;;;;5052320;28;20025;-71
2021/11/14 11:43:19;;;;;;;42.22;19.88;;;11.80;97.10;;;;;;5052242;28;20050;-71
2021/11/14 11:45:47;;;;;;;41.88;18.73;;;11.70;97.10;;;;;;5051988;28;20505;-71
2021/11/14 11:48:23;;;;;;;35.92;19.40;;;11.70;97.10;;;;;;5051856;28;20025;-71
2021/11/14 11:50:51;;;;;;;43.10;18.25;;;11.70;97.10;;;;;;5052061;28;20098;-74
2021/11/14 11:53:26;;;;;;;33.67;17.20;;;11.70;97.20;;;;;;5052178;28;20211;-76
2021/11/14 11:56:10;;;;;;;41.28;20.83;;;11.70;97.20;;;;;;5052090;28;20060;-74
2021/11/14 11:58:42;;;;;;;44.88;20.25;;;11.70;97.30;;;;;;5051456;28;20033;-75
2021/11/14 12:01:21;;;;;;;39.97;19.63;;;11.70;97.30;;;;;;5052101;28;20202;-73
2021/11/14 12:03:47;;;;;;;38.75;19.75;;;11.70;97.20;;;;;;5051694;28;20095;-71
2021/11/14 12:06:27;;;;;;;37.17;18.75;;;11.70;97.10;;;;;;5051550;28;20091;-70
2021/11/14 12:08:56;;;;;;;42.80;18.67;;;11.70;97.00;;;;;;5051364;28;20033;-70
2021/11/14 12:11:31;;;;;;;41.00;20.35;;;11.70;97.10;;;;;;5051389;28;20028;-71
2021/11/14 12:13:59;;;;;;;38.13;17.88;;;11.80;97.10;;;;;;5051212;28;20051;-69
2021/11/14 12:16:29;;;;;;;36.65;18.83;;;11.80;97.00;;;;;;5051224;28;20107;-69
2021/11/14 12:18:55;;;;;;;41.40;19.73;;;11.80;96.90;;;;;;5051772;28;20047;-69
2021/11/14 12:21:22;;;;;;;38.40;18.30;;;11.80;97.00;;;;;;5051249;28;20478;-70
2021/11/14 12:24:02;;;;;;;44.83;19.85;;;11.80;96.90;;;;;;5051092;28;20041;-70
2021/11/14 12:26:32;;;;;;;40.05;18.42;;;11.80;96.90;;;;;;5051150;28;20029;-70
2021/11/14 12:29:03;;;;;;;40.17;18.45;;;11.70;96.90;;;;;;5051155;28;20100;-67
2021/11/14 12:31:30;;;;;;;35.78;18.20;;;11.70;97.00;;;;;;5051067;28;20087;-69